Anchor, Mississippi
Current Conditions -  °F | °C
As of 10:55 PM on Friday 31 Oct 2014 (Local Time) from KSTF Reporting Station
Clear Clear  
Wind Chill:   Ceiling: Unl
Heat Index:   Visibility: 10mi
Dew Point: -2°   Wind: 6mph
Humidity: 57%   Direction: 340°NNW
Pressure: 30.27"   Gusts: NA
Location:  33.7962°N, 89.0553°W
Report Text: KSTF 010355Z AUTO 34005KT 10SM CLR 06/M02 A3027 RMK AO2
Loading
Personal Weather Stations






























Interactive Weather Map
Tropical Storm Tracking
New forecast layout! Learn more

10-Day Weather Forecast

Advertisements
Track Severe Weather on mobile